Time;durP1;ratioP1;P1;durP2;ratioP2;P2;SDS_P1;SDS_P2;PMS_P1;PMS_P2;Temp;Humidity;BMP_temperature;BMP_pressure;BME280_temperature;BME280_humidity;BME280_pressure;Samples;Min_cycle;Max_cycle;Signal;HPM_P1;HPM_P2
2021/01/25 00:00:29;;;;;;;69.47;63.20;;;;;;;3.99;63.24;99944.69;4909442;29;20039;-79
2021/01/25 00:02:54;;;;;;;52.15;47.17;;;;;;;4.01;63.01;99938.09;4911766;29;20051;-79
2021/01/25 00:05:20;;;;;;;60.35;54.08;;;;;;;4.03;63.59;99952.25;4912201;29;20036;-79
2021/01/25 00:07:45;;;;;;;57.00;51.80;;;;;;;4.08;63.50;99941.78;4926865;29;20146;-82
2021/01/25 00:10:11;;;;;;;53.20;47.92;;;;;;;4.10;63.74;99933.53;4925010;29;20849;-79
2021/01/25 00:12:37;;;;;;;45.92;41.38;;;;;;;4.12;63.38;99939.56;4930051;29;20062;-80
2021/01/25 00:15:04;;;;;;;53.05;47.65;;;;;;;4.20;63.63;99944.06;4926752;29;20029;-79
2021/01/25 00:17:29;;;;;;;76.10;69.50;;;;;;;4.23;63.95;99941.03;4929929;28;20039;-80
2021/01/25 00:19:55;;;;;;;47.40;42.38;;;;;;;4.27;63.64;99945.03;4929497;29;20040;-80
2021/01/25 00:22:21;;;;;;;52.97;47.17;;;;;;;4.30;63.83;99945.50;4931339;29;20210;-80
2021/01/25 00:24:47;;;;;;;55.45;49.28;;;;;;;4.29;63.82;99949.25;4936140;29;20031;-80
2021/01/25 00:27:12;;;;;;;54.88;49.50;;;;;;;4.35;63.65;99961.13;4915489;29;20035;-80
2021/01/25 00:29:38;;;;;;;46.33;41.47;;;;;;;4.32;63.61;99961.47;4934114;29;20035;-80
2021/01/25 00:32:06;;;;;;;53.50;47.67;;;;;;;4.26;63.54;99954.97;4930239;29;20659;-80
2021/01/25 00:34:31;;;;;;;48.05;42.72;;;;;;;4.29;63.42;99959.16;4911986;29;20040;-79
2021/01/25 00:36:57;;;;;;;48.95;43.88;;;;;;;4.33;63.31;99962.34;4929455;29;20055;-80
2021/01/25 00:39:22;;;;;;;60.88;55.28;;;;;;;4.31;63.19;99959.81;4929294;29;20584;-79
2021/01/25 00:41:48;;;;;;;59.95;44.50;;;;;;;4.18;63.27;99956.88;4930641;29;20082;-80
2021/01/25 00:44:15;;;;;;;43.70;39.10;;;;;;;4.26;63.41;99964.88;4916847;29;20040;-79
2021/01/25 00:46:40;;;;;;;47.70;42.55;;;;;;;4.20;63.21;99955.69;4927642;29;20035;-78
2021/01/25 00:49:05;;;;;;;46.25;41.13;;;;;;;4.27;63.33;99961.19;4929439;29;20046;-78
2021/01/25 00:51:31;;;;;;;49.65;44.55;;;;;;;4.23;63.26;99957.16;4929793;29;20058;-78
2021/01/25 00:53:56;;;;;;;53.40;48.03;;;;;;;4.22;63.10;99961.72;4928810;29;20039;-78
2021/01/25 00:56:22;;;;;;;44.30;39.63;;;;;;;4.26;63.08;99965.75;4931205;29;20043;-79
2021/01/25 00:58:47;;;;;;;55.13;49.63;;;;;;;4.26;63.03;99967.56;4927566;29;20162;-79
2021/01/25 01:01:13;;;;;;;45.85;41.05;;;;;;;4.24;63.13;99972.31;4921078;29;20036;-78
2021/01/25 01:03:38;;;;;;;60.25;54.85;;;;;;;4.22;62.97;99979.72;4911214;29;20039;-79
2021/01/25 01:06:04;;;;;;;51.35;46.53;;;;;;;4.18;62.92;99986.47;4929383;29;20111;-78
2021/01/25 01:08:29;;;;;;;55.33;50.08;;;;;;;4.13;62.85;99979.75;4928040;29;20039;-78
2021/01/25 01:10:55;;;;;;;43.83;39.35;;;;;;;4.18;62.85;99978.41;4914417;29;20043;-78
2021/01/25 01:13:21;;;;;;;54.28;49.15;;;;;;;4.14;62.92;99980.63;4911191;29;20035;-78
2021/01/25 01:15:46;;;;;;;59.55;53.92;;;;;;;4.16;63.38;99980.44;4913163;29;20086;-78
2021/01/25 01:18:12;;;;;;;53.10;48.30;;;;;;;4.23;63.17;99987.63;4927513;29;20099;-78
2021/01/25 01:20:38;;;;;;;56.45;51.03;;;;;;;4.31;63.43;99981.38;4925911;29;20044;-78
2021/01/25 01:23:03;;;;;;;62.85;56.95;;;;;;;4.37;63.20;99990.56;4929700;29;20138;-78
2021/01/25 01:25:28;;;;;;;47.67;42.88;;;;;;;4.39;63.19;99989.38;4929093;29;20039;-77
2021/01/25 01:27:54;;;;;;;48.17;43.28;;;;;;;4.39;63.01;99999.31;4931465;29;20047;-78
2021/01/25 01:30:19;;;;;;;46.47;41.63;;;;;;;4.38;63.21;99993.06;4932027;28;20043;-78
2021/01/25 01:32:45;;;;;;;60.90;55.40;;;;;;;4.43;63.15;99992.53;4929645;29;20086;-78
2021/01/25 01:35:10;;;;;;;53.13;47.53;;;;;;;4.45;63.83;99994.06;4921782;29;20123;-78
2021/01/25 01:37:36;;;;;;;69.78;63.47;;;;;;;4.48;63.38;99992.88;4921693;29;20422;-78
2021/01/25 01:40:07;;;;;;;53.30;48.38;;;;;;;4.45;62.99;100004.00;4924350;29;20051;-78
2021/01/25 01:42:33;;;;;;;43.42;38.67;;;;;;;4.46;63.02;100003.81;4929975;29;20479;-78
2021/01/25 01:45:01;;;;;;;43.63;39.28;;;;;;;4.44;63.23;100007.69;4911546;29;20067;-78
2021/01/25 01:47:27;;;;;;;64.82;58.95;;;;;;;4.41;63.00;100003.50;4931208;29;20035;-78
2021/01/25 01:49:52;;;;;;;55.40;50.53;;;;;;;4.41;63.21;100008.03;4909510;29;20044;-78
2021/01/25 01:52:18;;;;;;;54.22;49.10;;;;;;;4.45;63.49;100012.06;4926954;29;20044;-78
2021/01/25 01:54:44;;;;;;;52.25;47.05;;;;;;;4.39;63.10;100016.31;4914478;29;20031;-78
2021/01/25 01:57:10;;;;;;;45.85;41.08;;;;;;;4.38;63.15;100024.53;4926233;29;20024;-79
2021/01/25 01:59:36;;;;;;;58.63;53.05;;;;;;;4.40;63.55;100022.50;4934155;29;20043;-78
2021/01/25 02:02:09;;;;;;;56.65;51.05;;;;;;;4.44;63.60;100023.84;4916527;29;20379;-79
2021/01/25 02:04:54;;;;;;;58.47;53.17;;;;;;;4.45;63.14;100022.84;4893985;29;20032;-78
2021/01/25 02:07:20;;;;;;;41.17;36.80;;;;;;;4.38;63.12;100025.38;4928253;29;20043;-78
2021/01/25 02:09:47;;;;;;;46.45;41.90;;;;;;;4.30;62.92;100031.63;4927949;29;20498;-78
2021/01/25 02:12:14;;;;;;;40.72;36.47;;;;;;;4.26;62.91;100032.16;4927812;29;20486;-79
2021/01/25 02:14:41;;;;;;;47.63;42.95;;;;;;;4.21;63.05;100038.06;4928000;29;20069;-78
2021/01/25 02:17:07;;;;;;;43.05;38.60;;;;;;;4.21;62.91;100043.47;4925555;29;20480;-78
2021/01/25 02:19:57;;;;;;;49.55;44.40;;;;;;;4.12;62.93;100045.38;4929030;29;20040;-79
2021/01/25 02:22:39;;;;;;;53.50;48.30;;;;;;;4.04;62.85;100049.94;4927094;29;20039;-79
2021/01/25 02:25:35;;;;;;;52.17;46.88;;;;;;;3.93;62.75;100043.91;4925904;29;20043;-79
2021/01/25 02:28:01;;;;;;;52.38;47.28;;;;;;;3.88;63.25;100048.97;4923317;29;20032;-78
2021/01/25 02:33:02;;;;;;;47.40;41.63;;;;;;;3.96;63.79;100058.03;5610543;23;20406;-77
2021/01/25 02:35:28;;;;;;;47.90;42.85;;;;;;;3.98;63.29;100053.31;4924549;29;20032;-77
2021/01/25 02:37:55;;;;;;;52.13;47.03;;;;;;;3.93;63.14;100056.50;4910023;29;20068;-77
2021/01/25 02:40:22;;;;;;;51.85;46.83;;;;;;;3.89;63.35;100056.03;4922905;29;20042;-77
2021/01/25 02:42:50;;;;;;;55.42;49.50;;;;;;;3.92;63.44;100050.31;4895672;29;20432;-78
2021/01/25 02:45:17;;;;;;;46.47;41.50;;;;;;;3.92;63.36;100055.69;4925096;29;20031;-77
2021/01/25 02:47:44;;;;;;;48.75;44.05;;;;;;;3.91;63.29;100054.00;4910067;29;20143;-77
2021/01/25 02:50:10;;;;;;;48.28;43.63;;;;;;;3.85;62.97;100052.00;4926063;29;20035;-77
2021/01/25 02:52:35;;;;;;;59.28;53.80;;;;;;;3.82;62.91;100060.41;4909842;29;20051;-77
2021/01/25 02:55:01;;;;;;;57.35;52.33;;;;;;;3.76;62.85;100061.09;4910357;29;20054;-77
2021/01/25 02:57:28;;;;;;;66.15;60.17;;;;;;;3.71;63.09;100066.16;4908333;29;20766;-77
2021/01/25 02:59:54;;;;;;;61.15;55.70;;;;;;;3.65;63.08;100064.97;4924582;29;20549;-78
2021/01/25 03:02:19;;;;;;;46.30;41.78;;;;;;;3.64;62.96;100065.97;4925006;29;20098;-78
2021/01/25 03:04:45;;;;;;;57.53;51.42;;;;;;;3.63;63.68;100071.53;4911384;29;20079;-77
2021/01/25 03:07:11;;;;;;;58.22;52.35;;;;;;;3.63;63.90;100069.69;4926516;29;20047;-78
2021/01/25 03:09:37;;;;;;;47.95;43.42;;;;;;;3.62;63.42;100065.31;4925889;29;20039;-78
2021/01/25 03:12:03;;;;;;;46.03;41.13;;;;;;;3.66;63.67;100080.13;4924376;29;20078;-78
2021/01/25 03:14:29;;;;;;;44.88;38.35;;;;;;;3.64;63.46;100084.81;4922002;29;20032;-78
2021/01/25 03:16:55;;;;;;;47.08;42.28;;;;;;;3.56;63.95;100080.28;4907798;29;20122;-78
2021/01/25 03:19:21;;;;;;;49.88;44.55;;;;;;;3.62;63.55;100080.63;4926206;29;20028;-78
2021/01/25 03:21:48;;;;;;;58.25;52.35;;;;;;;3.56;63.75;100085.66;4925458;29;20497;-77
2021/01/25 03:24:14;;;;;;;46.15;40.03;;;;;;;3.56;63.62;100087.50;4925769;29;20038;-78
2021/01/25 03:26:39;;;;;;;50.80;45.60;;;;;;;3.61;63.31;100090.53;4926637;29;20043;-78
2021/01/25 03:29:05;;;;;;;50.50;45.17;;;;;;;3.56;63.42;100085.66;4906846;29;20372;-78
2021/01/25 03:31:31;;;;;;;44.55;39.47;;;;;;;3.53;63.48;100091.38;4923152;29;20119;-77
2021/01/25 03:33:56;;;;;;;53.47;48.15;;;;;;;3.51;63.26;100090.72;4925682;29;20082;-78
2021/01/25 03:36:21;;;;;;;50.75;45.85;;;;;;;3.46;63.15;100093.06;4926592;29;20501;-77
2021/01/25 03:38:47;;;;;;;44.63;40.17;;;;;;;3.39;63.13;100089.38;4925303;29;20449;-78
2021/01/25 03:41:13;;;;;;;45.92;41.42;;;;;;;3.32;63.04;100082.97;4926809;29;20067;-79
2021/01/25 03:43:38;;;;;;;57.70;52.10;;;;;;;3.27;63.04;100088.03;4926401;29;20405;-77
2021/01/25 03:46:03;;;;;;;64.82;58.90;;;;;;;3.26;63.13;100095.25;4924595;29;20048;-77
2021/01/25 03:48:29;;;;;;;50.95;46.15;;;;;;;3.23;63.02;100099.09;4927176;29;20498;-77
2021/01/25 03:50:54;;;;;;;50.17;45.47;;;;;;;3.17;62.92;100099.78;4892770;29;20043;-78
2021/01/25 03:53:20;;;;;;;53.50;47.75;;;;;;;3.12;63.28;100106.63;4894270;29;20443;-78
2021/01/25 03:55:45;;;;;;;63.58;57.67;;;;;;;3.07;62.95;100106.31;4908025;29;20131;-78
2021/01/25 03:58:11;;;;;;;55.95;50.40;;;;;;;3.04;62.98;100108.34;4928542;29;20063;-78
2021/01/25 04:00:36;;;;;;;48.40;43.33;;;;;;;2.98;63.00;100111.69;4924256;29;20040;-78
2021/01/25 04:03:02;;;;;;;44.40;40.13;;;;;;;2.88;62.92;100110.97;4910402;29;20040;-78
2021/01/25 04:05:28;;;;;;;69.47;63.45;;;;;;;2.79;63.20;100123.53;4927180;29;20066;-78
2021/01/25 04:07:53;;;;;;;63.65;57.88;;;;;;;2.83;63.99;100124.91;4924845;29;20040;-78
2021/01/25 04:10:18;;;;;;;64.25;58.17;;;;;;;2.86;63.97;100124.56;4925723;29;20179;-77
2021/01/25 04:12:44;;;;;;;59.15;53.38;;;;;;;2.90;63.75;100132.28;4926592;29;20114;-78
2021/01/25 04:15:10;;;;;;;50.75;45.35;;;;;;;2.93;64.00;100126.59;4915287;29;20036;-78
2021/01/25 04:17:36;;;;;;;54.13;48.25;;;;;;;2.95;64.18;100135.31;4925339;29;20425;-78
2021/01/25 04:20:03;;;;;;;54.95;49.15;;;;;;;2.95;64.15;100138.88;4910358;29;20051;-78
2021/01/25 04:22:28;;;;;;;55.33;48.90;;;;;;;3.01;64.36;100140.03;4926198;29;20039;-78
2021/01/25 04:24:55;;;;;;;63.72;57.30;;;;;;;2.96;64.81;100151.25;4928414;29;20040;-78
2021/01/25 04:27:20;;;;;;;62.17;55.83;;;;;;;3.01;64.53;100153.47;4924007;29;20055;-77
2021/01/25 04:29:46;;;;;;;61.28;55.05;;;;;;;3.05;64.21;100155.66;4926808;29;20343;-77
2021/01/25 04:32:11;;;;;;;61.25;55.15;;;;;;;3.06;63.85;100159.19;4926875;29;20119;-78
2021/01/25 04:34:36;;;;;;;42.20;37.67;;;;;;;2.99;64.05;100161.69;4926179;29;20044;-77
2021/01/25 04:37:02;;;;;;;52.90;47.70;;;;;;;2.96;63.65;100164.69;4928386;29;20553;-77
2021/01/25 04:39:27;;;;;;;53.67;48.22;;;;;;;2.95;63.63;100164.88;4923895;29;20594;-77
2021/01/25 04:41:53;;;;;;;56.95;51.47;;;;;;;2.92;63.73;100174.09;4924149;29;20051;-77
2021/01/25 04:44:22;;;;;;;58.75;52.85;;;;;;;2.86;63.55;100162.16;4925863;29;20046;-77
2021/01/25 04:46:48;;;;;;;45.95;41.03;;;;;;;2.78;63.44;100163.97;4925262;29;20152;-77
2021/01/25 04:49:14;;;;;;;51.47;46.25;;;;;;;2.79;63.62;100174.53;4924628;29;20739;-77
2021/01/25 04:51:41;;;;;;;50.13;44.17;;;;;;;2.71;63.41;100174.53;4927561;29;20496;-77
2021/01/25 04:54:08;;;;;;;50.08;44.97;;;;;;;2.64;63.46;100168.09;4923190;29;20035;-78
2021/01/25 04:56:36;;;;;;;42.35;37.30;;;;;;;2.60;63.44;100174.81;4908833;29;20383;-77
2021/01/25 04:59:05;;;;;;;52.35;47.25;;;;;;;2.53;63.36;100176.47;4925952;29;20035;-78
2021/01/25 05:01:31;;;;;;;45.40;40.58;;;;;;;2.54;63.67;100178.97;4907919;29;20043;-77
2021/01/25 05:03:56;;;;;;;49.40;43.72;;;;;;;2.52;63.81;100181.00;4910047;29;20050;-78
2021/01/25 05:06:22;;;;;;;49.97;44.88;;;;;;;2.42;63.50;100186.47;4925772;29;20103;-77
2021/01/25 05:08:47;;;;;;;49.25;43.97;;;;;;;2.40;63.42;100190.31;4930088;29;20067;-78
2021/01/25 05:11:17;;;;;;;46.80;41.80;;;;;;;2.35;63.50;100192.63;4926373;29;20067;-77
2021/01/25 05:13:43;;;;;;;52.22;46.90;;;;;;;2.35;63.56;100204.22;4929248;29;20070;-77
2021/01/25 05:16:15;;;;;;;60.22;54.33;;;;;;;2.33;63.27;100208.88;4928761;29;20210;-78
2021/01/25 05:18:41;;;;;;;54.40;49.22;;;;;;;2.23;63.48;100200.94;4923761;29;20493;-77
2021/01/25 05:21:07;;;;;;;67.32;61.00;;;;;;;2.22;63.41;100209.16;4911366;29;20074;-78
2021/01/25 05:23:40;;;;;;;58.95;52.97;;;;;;;2.24;63.23;100213.38;4928297;29;20035;-78
2021/01/25 05:26:07;;;;;;;60.28;54.33;;;;;;;2.23;63.61;100214.38;4929282;29;20032;-77
2021/01/25 05:28:39;;;;;;;62.72;56.65;;;;;;;2.26;63.79;100215.91;4928962;29;20032;-77
2021/01/25 05:31:16;;;;;;;48.70;43.28;;;;;;;2.26;63.53;100214.06;4928787;29;20184;-77
2021/01/25 05:33:42;;;;;;;47.58;42.00;;;;;;;2.25;63.40;100224.94;4927921;29;20121;-77
2021/01/25 05:36:07;;;;;;;46.78;41.55;;;;;;;2.20;63.42;100229.94;4909918;29;20098;-77
2021/01/25 05:38:33;;;;;;;49.90;42.13;;;;;;;2.22;63.84;100228.75;4927486;29;20028;-77
2021/01/25 05:40:58;;;;;;;48.65;42.25;;;;;;;2.24;63.90;100226.78;4908489;29;20367;-77
2021/01/25 05:43:31;;;;;;;50.20;43.20;;;;;;;2.26;64.00;100227.47;4927637;29;20063;-78
2021/01/25 05:46:05;;;;;;;63.55;57.15;;;;;;;2.24;64.07;100226.78;4929662;29;20032;-77
2021/01/25 05:48:30;;;;;;;57.53;51.55;;;;;;;2.27;63.62;100217.56;4927907;29;20071;-78
2021/01/25 05:50:56;;;;;;;60.10;53.63;;;;;;;2.23;63.58;100222.41;4929577;29;20051;-78
2021/01/25 05:53:21;;;;;;;70.22;63.47;;;;;;;2.20;63.72;100230.78;4911131;29;20042;-78
2021/01/25 05:55:47;;;;;;;62.90;56.58;;;;;;;2.19;63.55;100228.25;4929276;29;20039;-79
2021/01/25 05:58:12;;;;;;;68.75;62.13;;;;;;;2.08;63.44;100224.81;4926049;29;20039;-78
2021/01/25 06:00:38;;;;;;;70.05;63.78;;;;;;;2.07;63.57;100230.34;4895379;29;20524;-78
2021/01/25 06:03:05;;;;;;;54.72;49.22;;;;;;;2.02;63.67;100232.66;4926788;29;20046;-78
2021/01/25 06:05:31;;;;;;;54.28;48.67;;;;;;;2.02;63.56;100238.03;4927906;29;20486;-78
2021/01/25 06:08:40;;;;;;;64.88;58.63;;;;;;;1.97;63.74;100231.28;4929166;29;20090;-79
2021/01/25 06:11:22;;;;;;;66.22;59.90;;;;;;;1.92;63.68;100233.59;4926809;29;20035;-78
2021/01/25 06:13:52;;;;;;;66.95;60.50;;;;;;;1.89;63.41;100238.44;4924241;29;20383;-78
2021/01/25 06:16:21;;;;;;;54.20;48.60;;;;;;;1.81;63.76;100236.53;4926016;29;20031;-78
2021/01/25 06:18:46;;;;;;;58.28;52.22;;;;;;;1.78;63.50;100237.66;4900210;29;20478;-78
2021/01/25 06:21:21;;;;;;;54.15;48.45;;;;;;;1.69;63.58;100237.75;4927203;29;20337;-79
2021/01/25 06:23:47;;;;;;;61.72;55.33;;;;;;;1.64;63.44;100238.22;4926707;29;20126;-79
2021/01/25 06:26:13;;;;;;;59.33;53.53;;;;;;;1.67;63.68;100243.25;4926938;29;20032;-79
2021/01/25 06:28:41;;;;;;;68.90;62.00;;;;;;;1.73;64.22;100242.66;4926338;29;20043;-79
2021/01/25 06:31:07;;;;;;;88.93;80.97;;;;;;;1.74;63.75;100243.47;4908791;29;20070;-79
2021/01/25 06:33:39;;;;;;;78.18;70.72;;;;;;;1.72;63.63;100242.81;4928166;29;20102;-79
2021/01/25 06:36:08;;;;;;;82.90;75.20;;;;;;;1.76;63.81;100252.22;4924114;29;20397;-79
2021/01/25 06:38:38;;;;;;;69.95;62.90;;;;;;;1.82;63.77;100256.13;4928012;29;20031;-80
2021/01/25 06:41:15;;;;;;;67.53;60.67;;;;;;;1.89;63.73;100262.56;4927118;29;20227;-79
2021/01/25 06:43:42;;;;;;;64.38;56.97;;;;;;;1.90;63.80;100261.53;4928253;29;20451;-79
2021/01/25 06:46:08;;;;;;;63.20;56.55;;;;;;;1.92;63.92;100264.94;4927827;29;20079;-79
2021/01/25 06:48:34;;;;;;;62.63;55.95;;;;;;;1.90;63.66;100270.44;4908048;29;20032;-79
2021/01/25 06:51:01;;;;;;;58.92;52.65;;;;;;;1.83;63.54;100265.84;4928155;29;20078;-79
2021/01/25 06:53:29;;;;;;;59.10;52.90;;;;;;;1.86;63.56;100269.06;4927210;29;20041;-79
2021/01/25 06:55:59;;;;;;;53.72;47.45;;;;;;;1.79;63.59;100279.56;4911326;29;20627;-79
2021/01/25 06:58:28;;;;;;;51.90;45.28;;;;;;;1.77;63.24;100283.38;4909091;29;20383;-80
2021/01/25 07:00:54;;;;;;;63.45;56.65;;;;;;;1.76;63.51;100287.91;4927153;29;20031;-79
2021/01/25 07:03:21;;;;;;;67.57;60.70;;;;;;;1.76;63.27;100289.72;4907713;29;20038;-80
2021/01/25 07:05:49;;;;;;;66.90;60.13;;;;;;;1.75;63.44;100286.22;4928256;29;20034;-79
2021/01/25 07:08:26;;;;;;;51.00;44.85;;;;;;;1.70;63.66;100291.22;4930105;29;20031;-79
2021/01/25 07:10:59;;;;;;;57.70;51.83;;;;;;;1.64;63.55;100294.50;4924401;29;20436;-79
2021/01/25 07:13:30;;;;;;;65.35;58.75;;;;;;;1.64;63.50;100299.84;4925797;29;20044;-80
2021/01/25 07:15:57;;;;;;;55.83;49.97;;;;;;;1.63;63.52;100303.53;4926537;29;20134;-80
2021/01/25 07:18:24;;;;;;;67.72;61.25;;;;;;;1.64;63.64;100299.00;4924185;29;20042;-78
2021/01/25 07:20:51;;;;;;;68.30;61.42;;;;;;;1.64;64.03;100310.56;4926809;29;20539;-79
2021/01/25 07:23:19;;;;;;;55.92;49.90;;;;;;;1.65;63.77;100306.03;4908896;29;20028;-79
2021/01/25 07:25:58;;;;;;;58.83;52.92;;;;;;;1.61;63.40;100324.28;4910315;29;20032;-79
2021/01/25 07:28:26;;;;;;;51.97;45.28;;;;;;;1.63;63.55;100322.28;4910473;29;20051;-78
2021/01/25 07:30:51;;;;;;;62.08;55.60;;;;;;;1.66;63.71;100321.97;4926159;29;20040;-79
2021/01/25 07:33:19;;;;;;;60.20;52.17;;;;;;;1.70;63.53;100328.72;4927200;29;20056;-79
2021/01/25 07:35:45;;;;;;;60.25;54.13;;;;;;;1.68;63.39;100325.34;4924821;29;20043;-78
2021/01/25 07:38:11;;;;;;;72.75;65.20;;;;;;;1.68;63.47;100337.91;4908587;29;20032;-79
2021/01/25 07:40:36;;;;;;;48.55;32.83;;;;;;;1.69;63.50;100336.94;4926440;29;20043;-79
2021/01/25 07:43:05;;;;;;;46.40;37.72;;;;;;;1.68;63.49;100343.25;4926679;29;20106;-79
2021/01/25 07:45:32;;;;;;;54.33;45.33;;;;;;;1.67;63.78;100342.44;4927721;29;20556;-79
2021/01/25 07:47:58;;;;;;;47.70;41.55;;;;;;;1.67;63.44;100350.47;4913385;29;20063;-80
2021/01/25 07:50:24;;;;;;;48.80;40.83;;;;;;;1.64;63.53;100358.81;4926827;29;20533;-80
2021/01/25 07:53:07;;;;;;;52.13;41.33;;;;;;;1.64;63.57;100352.59;4928909;29;20040;-79
2021/01/25 07:55:38;;;;;;;55.65;48.10;;;;;;;1.72;63.93;100361.56;4927525;29;20032;-80
2021/01/25 07:58:08;;;;;;;51.92;44.90;;;;;;;1.83;63.69;100357.00;4927731;29;20079;-80
2021/01/25 08:00:34;;;;;;;57.83;51.22;;;;;;;1.91;63.71;100368.63;4929292;29;20062;-79
2021/01/25 08:03:13;;;;;;;58.22;51.78;;;;;;;1.99;63.76;100367.03;4928465;29;20482;-79
2021/01/25 08:05:40;;;;;;;55.13;43.58;;;;;;;2.04;63.56;100376.31;4925140;29;20474;-80
2021/01/25 08:08:11;;;;;;;51.42;41.33;;;;;;;2.11;63.44;100385.44;4929608;29;20042;-80
2021/01/25 08:10:37;;;;;;;49.95;41.30;;;;;;;2.23;63.15;100387.91;4929894;29;20036;-80
2021/01/25 08:13:17;;;;;;;58.88;46.85;;;;;;;2.30;63.36;100389.81;4927172;29;20023;-80
2021/01/25 08:15:54;;;;;;;49.65;38.88;;;;;;;2.38;63.44;100393.56;4927093;29;20039;-79
2021/01/25 08:18:25;;;;;;;60.47;53.97;;;;;;;2.45;62.93;100392.78;4928273;29;20119;-80
2021/01/25 08:20:56;;;;;;;68.40;61.40;;;;;;;2.49;63.02;100396.84;4924438;29;20084;-79
2021/01/25 08:23:24;;;;;;;59.63;48.42;;;;;;;2.55;62.95;100399.91;4928391;29;20031;-79
2021/01/25 08:25:55;;;;;;;56.03;46.20;;;;;;;2.72;63.14;100407.09;4924522;29;20040;-79
2021/01/25 08:28:26;;;;;;;53.95;46.10;;;;;;;2.95;63.10;100401.22;4930435;29;20458;-79
2021/01/25 08:30:52;;;;;;;56.23;47.27;;;;;;;3.22;63.21;100403.72;4926939;29;20043;-80
2021/01/25 08:33:31;;;;;;;61.00;48.50;;;;;;;3.99;63.71;100420.88;4905080;29;20052;-80
2021/01/25 08:36:02;;;;;;;68.13;51.45;;;;;;;5.62;62.83;100415.53;4925089;29;20031;-79
2021/01/25 08:38:54;;;;;;;76.63;54.30;;;;;;;7.59;60.61;100422.13;4928414;29;20023;-80
2021/01/25 08:41:32;;;;;;;75.18;58.20;;;;;;;8.71;55.44;100431.78;4924261;29;20048;-80
2021/01/25 08:44:24;;;;;;;67.72;60.38;;;;;;;8.07;55.42;100435.25;4929147;29;20055;-80
2021/01/25 08:46:50;;;;;;;52.30;40.40;;;;;;;7.38;57.40;100430.16;4922770;29;20051;-80
2021/01/25 08:49:23;;;;;;;49.53;38.03;;;;;;;6.87;57.76;100431.66;4926704;29;20035;-79
2021/01/25 08:52:09;;;;;;;44.65;34.40;;;;;;;6.46;58.06;100440.09;4926227;29;20078;-80
2021/01/25 08:54:39;;;;;;;38.67;33.85;;;;;;;6.17;59.47;100438.91;4929158;29;20024;-80
2021/01/25 08:57:31;;;;;;;43.57;33.80;;;;;;;5.87;59.46;100441.41;4911452;29;20510;-80
2021/01/25 09:00:07;;;;;;;;;;;;;;;5.71;59.78;100446.88;4929943;29;20530;-80
2021/01/25 09:02:33;;;;;;;54.88;40.72;;;;;;;6.02;60.28;100446.91;4927839;29;19922;-80
2021/01/25 09:04:59;;;;;;;53.42;37.35;;;;;;;6.18;59.91;100443.31;4922192;29;20477;-80
2021/01/25 09:07:24;;;;;;;47.53;36.10;;;;;;;6.06;60.05;100460.94;4926647;29;20034;-80
2021/01/25 09:09:49;;;;;;;52.05;38.03;;;;;;;6.24;59.88;100448.00;4926445;29;20035;-80
2021/01/25 09:12:17;;;;;;;47.20;39.92;;;;;;;6.12;59.81;100451.25;4928304;29;20067;-80
2021/01/25 09:14:43;;;;;;;54.35;44.17;;;;;;;6.33;60.09;100456.88;4906522;29;20082;-80
2021/01/25 09:17:10;;;;;;;89.68;63.97;;;;;;;8.24;58.22;100469.19;4925994;29;20130;-80
2021/01/25 09:19:36;;;;;;;182.15;118.90;;;;;;;9.58;54.96;100453.31;4907648;29;20031;-79
2021/01/25 09:22:03;;;;;;;185.45;129.68;;;;;;;10.74;51.59;100464.22;4925501;29;20046;-80
2021/01/25 09:24:28;;;;;;;191.90;128.85;;;;;;;11.06;49.09;100460.91;4924570;29;21438;-80
2021/01/25 09:26:53;;;;;;;158.40;111.53;;;;;;;10.64;50.66;100461.06;4895509;29;20040;-79
2021/01/25 09:29:19;;;;;;;121.93;90.43;;;;;;;10.31;49.41;100475.38;4926178;29;20035;-80
2021/01/25 09:31:44;;;;;;;91.07;65.90;;;;;;;9.61;50.50;100475.47;4928099;29;20035;-80
2021/01/25 09:34:11;;;;;;;75.50;60.13;;;;;;;9.01;51.60;100479.63;4927732;29;20052;-80
2021/01/25 09:36:36;;;;;;;60.35;45.92;;;;;;;8.56;53.31;100475.22;4925250;29;20128;-80
2021/01/25 09:39:03;;;;;;;52.67;41.88;;;;;;;8.30;54.38;100480.31;4908853;29;20072;-80
2021/01/25 09:41:31;;;;;;;52.47;44.67;;;;;;;8.12;55.15;100483.41;4904703;29;20609;-80
2021/01/25 09:43:56;;;;;;;48.00;41.20;;;;;;;8.04;55.73;100487.06;4926890;29;20047;-80
2021/01/25 09:46:22;;;;;;;44.58;34.45;;;;;;;8.00;56.10;100491.19;4927708;29;20032;-80
2021/01/25 09:48:47;;;;;;;40.33;30.00;;;;;;;7.97;56.51;100491.56;4925824;29;20027;-80
2021/01/25 09:51:12;;;;;;;40.47;32.65;;;;;;;8.37;57.15;100489.34;4925965;29;20513;-80
2021/01/25 09:53:38;;;;;;;40.00;30.92;;;;;;;8.77;56.06;100503.34;4924663;29;20039;-80
2021/01/25 09:56:03;;;;;;;36.38;29.90;;;;;;;9.29;55.64;100506.75;4927733;29;20032;-81
2021/01/25 09:58:29;;;;;;;33.00;27.08;;;;;;;9.53;54.13;100500.06;4924791;29;20031;-81
2021/01/25 10:00:55;;;;;;;36.13;26.10;;;;;;;9.49;53.75;100509.63;4924895;29;20842;-80
2021/01/25 10:03:20;;;;;;;31.73;28.10;;;;;;;9.46;54.25;100512.75;4925999;29;20039;-81
2021/01/25 10:05:46;;;;;;;34.67;28.02;;;;;;;9.41;54.06;100509.78;4909682;29;20036;-81
2021/01/25 10:08:11;;;;;;;33.15;26.98;;;;;;;9.72;55.39;100516.69;4927689;29;20031;-81
2021/01/25 10:10:37;;;;;;;30.00;25.08;;;;;;;10.81;55.36;100520.53;4924799;29;20043;-81
2021/01/25 10:13:05;;;;;;;32.10;27.17;;;;;;;12.67;50.95;100516.69;4925172;29;20074;-82
2021/01/25 10:15:30;;;;;;;26.92;21.13;;;;;;;14.00;46.54;100518.59;4907133;29;20043;-82
2021/01/25 10:17:55;;;;;;;26.92;22.95;;;;;;;14.82;45.19;100527.25;4910351;29;20035;-80
2021/01/25 10:20:21;;;;;;;24.48;19.42;;;;;;;15.26;43.42;100529.78;4926261;29;20040;-80
2021/01/25 10:22:46;;;;;;;23.98;20.02;;;;;;;15.40;41.88;100528.47;4925323;29;20046;-81
2021/01/25 10:25:12;;;;;;;23.13;14.25;;;;;;;15.61;42.67;100534.44;4926554;29;20035;-81
2021/01/25 10:27:38;;;;;;;17.83;12.02;;;;;;;15.43;41.54;100531.78;4924004;29;20044;-81
2021/01/25 10:30:08;;;;;;;13.20;12.00;;;;;;;15.20;40.52;100537.00;4925787;29;20051;-81
2021/01/25 10:32:34;;;;;;;9.10;8.13;;;;;;;15.42;41.81;100533.72;4924720;29;20036;-80
2021/01/25 10:34:59;;;;;;;8.88;8.00;;;;;;;15.87;40.22;100541.38;4923609;29;20138;-81
2021/01/25 10:37:26;;;;;;;6.38;5.78;;;;;;;16.32;39.39;100539.91;4911176;29;20039;-81
2021/01/25 10:39:51;;;;;;;5.05;4.70;;;;;;;16.50;37.82;100551.78;4908252;29;20609;-82
2021/01/25 10:42:17;;;;;;;3.83;3.45;;;;;;;16.25;36.75;100548.28;4922929;29;20135;-81
2021/01/25 10:44:42;;;;;;;2.97;2.38;;;;;;;16.14;37.07;100553.78;4925614;29;20043;-83
2021/01/25 10:47:08;;;;;;;2.47;2.13;;;;;;;15.74;36.98;100545.19;4923801;29;20415;-82
2021/01/25 10:49:33;;;;;;;1.63;1.33;;;;;;;14.79;36.57;100560.56;4924744;29;20040;-82
2021/01/25 10:51:59;;;;;;;2.45;1.33;;;;;;;13.96;39.04;100565.53;4923249;29;20040;-83
2021/01/25 10:54:25;;;;;;;1.42;0.90;;;;;;;12.99;38.67;100568.56;4922953;29;20492;-82
2021/01/25 10:56:51;;;;;;;1.38;1.00;;;;;;;12.56;41.63;100568.34;4914732;29;20032;-82
2021/01/25 10:59:17;;;;;;;2.30;1.05;;;;;;;12.27;41.86;100570.56;4924461;29;20078;-82
2021/01/25 11:01:42;;;;;;;1.65;1.27;;;;;;;11.89;42.55;100563.06;4907605;29;20024;-82
2021/01/25 11:04:07;;;;;;;2.47;1.20;;;;;;;11.63;41.03;100570.22;4924992;29;20573;-82
2021/01/25 11:06:33;;;;;;;3.42;1.65;;;;;;;11.78;42.50;100572.72;4910143;29;20115;-82
2021/01/25 11:08:58;;;;;;;4.60;3.33;;;;;;;11.76;41.34;100570.22;4901906;29;20036;-82
2021/01/25 11:11:24;;;;;;;4.80;2.55;;;;;;;12.11;41.29;100577.31;4905927;29;20091;-82
2021/01/25 11:13:49;;;;;;;3.35;3.15;;;;;;;12.44;41.55;100574.50;4924628;29;20039;-83
2021/01/25 11:16:14;;;;;;;3.85;3.55;;;;;;;12.60;40.07;100569.59;4911300;29;20042;-83
2021/01/25 11:18:40;;;;;;;2.88;2.03;;;;;;;12.55;40.46;100583.91;4928589;29;20051;-81
2021/01/25 11:21:05;;;;;;;3.67;2.58;;;;;;;12.66;39.98;100579.66;4927425;29;20031;-82
2021/01/25 11:23:31;;;;;;;5.10;4.53;;;;;;;12.47;39.73;100568.59;4907443;29;20402;-81